»·PEaware :: N13M KLAX-KSAN

N13M :: KLAX-KSAN

FLIGHT INFORMATION

Flight Status: Arrived
Operator: Privately registered:
United States
More flights under this callsign
Pilot: Zhuojun Y. (28503)
Aircraft: SOCATA TBM-900
(TBM9)
More flights by this aircraft type
Origin: KLAX Los Angeles Intl
United States
Destination: KSAN San Diego Intl-Lindbergh
United States
More flights between these airports :: More routes between these airports
Route: +
File this flight plan on PilotEdge
Remarks:
Altitude:
(Current/Filed)
7,500ft
Speed:
(Current/Filed)
0kts
Departed: 28-Mar-20 07:01 PM
Arrived: 28-Mar-20 08:05 PM
Distance/Time
Traveled:
95nm/1:04
Distance/Time
To Go:
Arrived

Flight Plot

Page will automatically refresh every two minutes.


Map Options




Map Legend


Flown Route
Filed Route
Departure Airport
Arrival Airport
Navaid (VOR, NDB)
Fix

Horizontal Profiles

Position Reports

Time Latitude Longitude Heading Altitude Ground
Speed
28-Mar-20 18:41 33.942795 -118.379878 40 108ft 0kts
28-Mar-20 18:42 33.942795 -118.379878 40 108ft 0kts
28-Mar-20 18:44 33.942795 -118.379878 40 108ft 0kts
28-Mar-20 18:44 33.942795 -118.379878 40 108ft 0kts
28-Mar-20 18:45 33.942795 -118.379878 40 108ft 0kts
28-Mar-20 18:46 33.942826 -118.379837 54 108ft 2kts
28-Mar-20 18:47 33.942601 -118.379588 187 108ft 0kts
28-Mar-20 18:48 33.942601 -118.379588 187 108ft 0kts
28-Mar-20 18:49 33.942601 -118.379588 187 108ft 0kts
28-Mar-20 18:50 33.942601 -118.379588 187 108ft 0kts
28-Mar-20 18:51 33.942601 -118.379588 187 108ft 0kts
28-Mar-20 18:52 33.942601 -118.379588 187 108ft 0kts
28-Mar-20 18:53 33.942571 -118.379596 198 108ft 3kts
28-Mar-20 18:54 33.940950 -118.380093 171 108ft 9kts
28-Mar-20 18:55 33.940887 -118.380082 172 108ft 0kts
28-Mar-20 18:56 33.940887 -118.380082 172 108ft 0kts
28-Mar-20 18:57 33.940887 -118.380082 172 108ft 0kts
28-Mar-20 18:58 33.940887 -118.380082 172 108ft 0kts
28-Mar-20 18:59 33.940654 -118.380047 174 108ft 7kts
28-Mar-20 19:00 33.939134 -118.386971 263 108ft 102kts
28-Mar-20 19:01 33.936177 -118.416641 265 1352ft 149kts
28-Mar-20 19:02 33.934070 -118.466108 267 2499ft 198kts
28-Mar-20 19:03 33.913698 -118.516468 217 2853ft 214kts
28-Mar-20 19:04 33.862749 -118.516994 172 2846ft 222kts
28-Mar-20 19:05 33.818567 -118.491061 142 2846ft 222kts
28-Mar-20 19:06 33.780770 -118.455458 142 2844ft 224kts
28-Mar-20 19:07 33.740924 -118.417930 142 2844ft 224kts
28-Mar-20 19:08 33.697324 -118.376854 142 2955ft 219kts
28-Mar-20 19:09 33.656556 -118.338421 141 3905ft 191kts
28-Mar-20 19:10 33.620755 -118.304685 141 5352ft 183kts
28-Mar-20 19:11 33.580717 -118.266970 141 5350ft 217kts
28-Mar-20 19:12 33.536421 -118.225233 141 5345ft 223kts
28-Mar-20 19:13 33.492329 -118.183679 141 5344ft 223kts
28-Mar-20 19:14 33.447888 -118.140841 131 5337ft 223kts
28-Mar-20 19:15 33.412851 -118.090514 129 5344ft 223kts
28-Mar-20 19:16 33.377050 -118.039027 129 5344ft 223kts
28-Mar-20 19:17 33.341293 -117.987589 129 5344ft 223kts
28-Mar-20 19:18 33.309099 -117.933255 119 5345ft 223kts
28-Mar-20 19:19 33.282296 -117.877122 119 5344ft 223kts
28-Mar-20 19:20 33.254206 -117.820748 121 5344ft 223kts
28-Mar-20 19:21 33.224656 -117.764430 122 5344ft 223kts
28-Mar-20 19:22 33.194475 -117.708231 122 5344ft 222kts
28-Mar-20 19:23 33.164941 -117.653095 122 5326ft 223kts
28-Mar-20 19:24 33.135404 -117.598023 122 5325ft 215kts
28-Mar-20 19:25 33.109712 -117.550024 122 5317ft 182kts
28-Mar-20 19:26 33.080321 -117.511504 135 5321ft 169kts
28-Mar-20 19:27 33.045700 -117.500571 236 5325ft 167kts
28-Mar-20 19:28 33.059868 -117.545605 305 5328ft 169kts
28-Mar-20 19:29 33.084981 -117.585234 307 5326ft 170kts
28-Mar-20 19:30 33.115543 -117.624068 330 4597ft 199kts
28-Mar-20 19:31 33.162469 -117.626522 27 3401ft 210kts
28-Mar-20 19:32 33.198375 -117.593360 65 3312ft 182kts
28-Mar-20 19:33 33.181007 -117.557907 196 3319ft 173kts
28-Mar-20 19:34 33.140622 -117.582691 205 3326ft 172kts
28-Mar-20 19:35 33.099994 -117.604901 204 3326ft 172kts
28-Mar-20 19:36 33.056341 -117.618857 189 3325ft 171kts
28-Mar-20 19:37 33.011692 -117.626138 187 3326ft 172kts
28-Mar-20 19:38 32.966263 -117.633321 187 3138ft 183kts
28-Mar-20 19:39 32.915599 -117.641358 187 1728ft 212kts
28-Mar-20 19:40 32.864758 -117.635989 137 1311ft 183kts
28-Mar-20 19:41 32.865719 -117.578662 79 1325ft 174kts
28-Mar-20 19:42 32.872298 -117.525890 82 1322ft 173kts
28-Mar-20 19:43 32.880117 -117.475304 81 1317ft 162kts
28-Mar-20 19:44 32.884348 -117.429238 84 1322ft 151kts
28-Mar-20 19:45 32.887755 -117.387110 84 1323ft 147kts
28-Mar-20 19:46 32.875410 -117.352732 131 1328ft 147kts
28-Mar-20 19:47 32.853993 -117.323865 131 1326ft 146kts
28-Mar-20 19:48 32.832736 -117.295215 131 1326ft 146kts
28-Mar-20 19:49 32.812939 -117.268534 131 1326ft 146kts
28-Mar-20 19:50 32.794486 -117.243661 131 1325ft 146kts
28-Mar-20 19:51 32.775518 -117.218093 131 1324ft 144kts
28-Mar-20 19:52 32.761761 -117.191214 116 1379ft 131kts
28-Mar-20 19:53 32.751596 -117.164603 113 1319ft 123kts
28-Mar-20 19:54 32.742851 -117.140665 113 1309ft 105kts
28-Mar-20 19:55 32.735245 -117.118220 110 1322ft 100kts
28-Mar-20 19:56 32.728242 -117.095853 110 1326ft 100kts
28-Mar-20 19:57 32.720927 -117.072867 119 1322ft 100kts
28-Mar-20 19:58 32.704929 -117.069263 250 1242ft 101kts
28-Mar-20 19:59 32.709303 -117.090951 287 1128ft 103kts
28-Mar-20 20:00 32.714999 -117.112883 286 1087ft 96kts
28-Mar-20 20:01 32.719562 -117.132499 287 993ft 90kts
28-Mar-20 20:02 32.724425 -117.152056 287 686ft 89kts
28-Mar-20 20:03 32.729234 -117.171735 286 208ft 86kts
28-Mar-20 20:04 32.732821 -117.186557 284 17ft 20kts
28-Mar-20 20:05 32.734100 -117.187852 64 18ft 0kts
28-Mar-20 20:06 32.734100 -117.187852 64 18ft 0kts
28-Mar-20 20:07 32.733788 -117.185908 107 17ft 21kts
28-Mar-20 20:08 32.732923 -117.182314 105 17ft 10kts
28-Mar-20 20:09 32.732769 -117.179578 63 17ft 16kts
28-Mar-20 20:10 32.732771 -117.178245 108 18ft 0kts
28-Mar-20 20:11 32.732771 -117.178245 108 18ft 0kts
28-Mar-20 20:12 32.732771 -117.178245 108 18ft 0kts
28-Mar-20 20:13 32.732771 -117.178245 108 18ft 0kts
28-Mar-20 20:14 32.732771 -117.178245 108 18ft 0kts
28-Mar-20 20:15 32.732771 -117.178245 108 18ft 0kts
28-Mar-20 20:16 32.732771 -117.178245 108 18ft 0kts
28-Mar-20 20:17 32.732771 -117.178245 108 18ft 0kts
28-Mar-20 20:18 32.732771 -117.178245 108 18ft 0kts

Navigation Log

Ident Type
Flight plan parsing failed, navigation log unavailable